Time;durP1;ratioP1;P1;durP2;ratioP2;P2;SDS_P1;SDS_P2;PMS_P1;PMS_P2;Temp;Humidity;BMP_temperature;BMP_pressure;BME280_temperature;BME280_humidity;BME280_pressure;Samples;Min_cycle;Max_cycle;Signal;HPM_P1;HPM_P2
2021/09/10 00:00:28;;;;;;;11.50;8.40;;;18.90;99.90;;;;;;5051580;28;20024;-76
2021/09/10 00:02:53;;;;;;;8.52;7.63;;;18.90;99.90;;;;;;5051758;28;20037;-77
2021/09/10 00:05:19;;;;;;;11.20;8.77;;;18.80;99.90;;;;;;5051070;28;20021;-76
2021/09/10 00:07:44;;;;;;;14.23;8.10;;;18.80;99.90;;;;;;5052209;28;20109;-77
2021/09/10 00:10:10;;;;;;;11.88;7.43;;;18.80;99.90;;;;;;5053495;28;20036;-76
2021/09/10 00:12:36;;;;;;;12.20;8.13;;;18.70;99.90;;;;;;5049499;28;20116;-74
2021/09/10 00:15:03;;;;;;;9.95;7.53;;;18.60;99.90;;;;;;5050973;28;20024;-74
2021/09/10 00:17:29;;;;;;;9.77;8.15;;;18.60;99.90;;;;;;5049306;28;20440;-74
2021/09/10 00:19:54;;;;;;;10.40;8.10;;;18.50;99.90;;;;;;5049576;28;20021;-75
2021/09/10 00:22:20;;;;;;;8.07;7.38;;;18.40;99.90;;;;;;5050376;28;20028;-77
2021/09/10 00:24:46;;;;;;;8.20;7.40;;;18.40;99.90;;;;;;5052922;28;20024;-74
2021/09/10 00:27:11;;;;;;;9.00;7.93;;;18.40;99.90;;;;;;5054623;28;20033;-74
2021/09/10 00:29:37;;;;;;;8.90;8.00;;;18.30;99.90;;;;;;5055858;28;20032;-74
2021/09/10 00:32:03;;;;;;;9.38;8.43;;;18.30;99.90;;;;;;5061015;28;20450;-73
2021/09/10 00:34:28;;;;;;;7.97;7.25;;;18.30;99.90;;;;;;5073003;28;20032;-72
2021/09/10 00:36:54;;;;;;;10.95;8.68;;;18.30;99.90;;;;;;5072727;28;20108;-74
2021/09/10 00:39:21;;;;;;;12.65;8.40;;;18.30;99.90;;;;;;5074958;28;20059;-73
2021/09/10 00:41:47;;;;;;;11.60;8.20;;;18.30;99.90;;;;;;5075921;28;20182;-72
2021/09/10 00:44:12;;;;;;;10.70;8.13;;;18.20;99.90;;;;;;5075812;28;20060;-73
2021/09/10 00:46:38;;;;;;;9.95;8.25;;;18.20;99.90;;;;;;5075606;28;20438;-74
2021/09/10 00:49:04;;;;;;;8.48;7.65;;;18.10;99.90;;;;;;5075687;28;20112;-74
2021/09/10 00:51:30;;;;;;;10.85;7.80;;;18.10;99.90;;;;;;5088330;28;20075;-74
2021/09/10 00:53:55;;;;;;;8.95;8.13;;;18.20;99.90;;;;;;5085739;28;20024;-74
2021/09/10 00:56:21;;;;;;;13.45;8.68;;;18.20;99.90;;;;;;5086328;28;20035;-73
2021/09/10 00:58:47;;;;;;;16.20;8.48;;;18.20;99.90;;;;;;5085795;28;20028;-74
2021/09/10 01:01:12;;;;;;;11.85;8.40;;;18.20;99.90;;;;;;5086543;28;20180;-74
2021/09/10 01:03:38;;;;;;;10.13;7.95;;;18.20;99.90;;;;;;5075499;28;20068;-76
2021/09/10 01:06:05;;;;;;;8.80;7.95;;;18.20;99.90;;;;;;5055226;28;20476;-74
2021/09/10 01:08:31;;;;;;;8.30;7.50;;;18.20;99.90;;;;;;5055114;28;20396;-74
2021/09/10 01:10:59;;;;;;;8.32;7.53;;;18.30;99.90;;;;;;5055029;28;20045;-75
2021/09/10 01:13:26;;;;;;;8.80;8.00;;;18.40;99.90;;;;;;5055043;28;20469;-74
2021/09/10 01:15:52;;;;;;;7.55;6.85;;;18.40;99.90;;;;;;5053286;28;20049;-77
2021/09/10 01:18:17;;;;;;;9.45;8.13;;;18.30;99.90;;;;;;5054784;28;20445;-75
2021/09/10 01:20:47;;;;;;;14.70;8.93;;;18.30;99.90;;;;;;5054570;28;20052;-76
2021/09/10 01:23:12;;;;;;;10.27;7.45;;;18.20;99.90;;;;;;5053740;28;20029;-75
2021/09/10 01:25:38;;;;;;;9.13;7.88;;;18.30;99.90;;;;;;5053445;28;20393;-73
2021/09/10 01:28:03;;;;;;;8.95;7.95;;;18.20;99.90;;;;;;5054671;28;20078;-74
2021/09/10 01:30:32;;;;;;;11.75;8.13;;;18.30;99.90;;;;;;5053671;28;20045;-74
2021/09/10 01:33:00;;;;;;;8.68;7.80;;;18.30;99.90;;;;;;5064831;28;20056;-74
2021/09/10 01:35:25;;;;;;;8.57;7.75;;;18.30;99.90;;;;;;5074138;28;20025;-74
2021/09/10 01:37:53;;;;;;;10.45;8.13;;;18.30;99.90;;;;;;5073315;28;20020;-74
2021/09/10 01:40:18;;;;;;;8.73;7.82;;;18.30;99.90;;;;;;5074606;28;20032;-73
2021/09/10 01:42:44;;;;;;;10.18;7.68;;;18.20;99.90;;;;;;5074387;28;20507;-74
2021/09/10 01:45:12;;;;;;;8.98;7.95;;;18.20;99.90;;;;;;5074364;28;20020;-75
2021/09/10 01:47:38;;;;;;;9.13;7.72;;;18.20;99.90;;;;;;5074357;28;20016;-75
2021/09/10 01:50:06;;;;;;;10.38;7.95;;;18.20;99.90;;;;;;5072676;28;20021;-75
2021/09/10 01:52:33;;;;;;;9.40;8.60;;;18.10;99.90;;;;;;5074837;28;20027;-74
2021/09/10 01:54:58;;;;;;;10.02;8.32;;;18.10;99.90;;;;;;5074433;28;20032;-74
2021/09/10 01:57:24;;;;;;;9.57;8.30;;;18.20;99.90;;;;;;5074185;28;20021;-75
2021/09/10 01:59:49;;;;;;;9.13;7.90;;;18.20;99.90;;;;;;5072832;28;20017;-74
2021/09/10 02:02:15;;;;;;;9.35;8.40;;;18.10;99.90;;;;;;5073827;28;20032;-73
2021/09/10 02:04:40;;;;;;;13.95;8.45;;;18.10;99.90;;;;;;5074050;28;20024;-74
2021/09/10 02:07:06;;;;;;;12.20;8.65;;;18.10;99.90;;;;;;5073894;28;20031;-74
2021/09/10 02:09:35;;;;;;;13.52;9.23;;;18.20;99.90;;;;;;5073794;28;20078;-76
2021/09/10 02:12:04;;;;;;;9.57;7.63;;;18.30;99.90;;;;;;5073937;28;20016;-74
2021/09/10 02:14:31;;;;;;;9.38;8.48;;;18.40;99.90;;;;;;5073779;28;20441;-74
2021/09/10 02:16:57;;;;;;;11.52;8.90;;;18.30;99.90;;;;;;5053972;28;20392;-76
2021/09/10 02:19:23;;;;;;;12.27;9.15;;;18.30;99.90;;;;;;5053616;28;20029;-75
2021/09/10 02:21:48;;;;;;;12.48;8.13;;;18.30;99.90;;;;;;5053716;28;20025;-74
2021/09/10 02:24:14;;;;;;;9.43;8.60;;;18.50;99.90;;;;;;5052301;28;20018;-73
2021/09/10 02:26:40;;;;;;;12.90;8.70;;;18.40;99.90;;;;;;5052157;28;20480;-76
2021/09/10 02:29:05;;;;;;;11.02;9.10;;;18.30;99.90;;;;;;5053566;28;20052;-72
2021/09/10 02:31:31;;;;;;;10.05;9.05;;;18.30;99.90;;;;;;5055491;28;20502;-74
2021/09/10 02:33:56;;;;;;;11.75;9.10;;;18.20;99.90;;;;;;5067546;28;20038;-74
2021/09/10 02:36:22;;;;;;;14.85;9.40;;;18.20;99.90;;;;;;5072078;28;20031;-74
2021/09/10 02:38:48;;;;;;;11.65;9.65;;;18.20;99.90;;;;;;5071701;28;20399;-74
2021/09/10 02:41:13;;;;;;;10.18;8.38;;;18.50;99.90;;;;;;5073008;28;20032;-72
2021/09/10 02:43:39;;;;;;;10.98;9.05;;;18.50;99.90;;;;;;5073027;28;20025;-74
2021/09/10 02:46:05;;;;;;;9.95;8.55;;;18.40;99.90;;;;;;5073341;28;20085;-75
2021/09/10 02:48:30;;;;;;;11.18;7.85;;;18.30;99.90;;;;;;5070974;28;20059;-74
2021/09/10 02:50:56;;;;;;;11.32;9.18;;;18.30;99.90;;;;;;5071742;28;20035;-74
2021/09/10 02:53:21;;;;;;;11.13;8.90;;;18.20;99.90;;;;;;5073019;28;20029;-73
2021/09/10 02:55:47;;;;;;;10.95;9.02;;;18.20;99.90;;;;;;5072861;28;20028;-74
2021/09/10 02:58:12;;;;;;;11.30;9.38;;;18.40;99.90;;;;;;5072950;28;20035;-75
2021/09/10 03:00:41;;;;;;;10.45;9.40;;;18.40;99.90;;;;;;5072599;28;20025;-74
2021/09/10 03:03:06;;;;;;;12.20;9.23;;;18.40;99.90;;;;;;5071534;28;20074;-74
2021/09/10 03:05:32;;;;;;;16.05;9.40;;;18.30;99.90;;;;;;5071444;28;20025;-74
2021/09/10 03:07:58;;;;;;;11.85;9.68;;;18.30;99.90;;;;;;5072746;28;20027;-74
2021/09/10 03:10:24;;;;;;;16.92;9.00;;;18.30;99.90;;;;;;5071036;28;20082;-74
2021/09/10 03:12:50;;;;;;;9.20;8.10;;;18.30;99.90;;;;;;5072654;28;20132;-74
2021/09/10 03:15:16;;;;;;;10.05;7.72;;;18.40;99.90;;;;;;5066027;28;20508;-75
2021/09/10 03:17:42;;;;;;;14.27;9.00;;;18.40;99.90;;;;;;5052850;28;20108;-74
2021/09/10 03:20:09;;;;;;;13.93;8.35;;;18.40;99.90;;;;;;5051046;28;20031;-75
2021/09/10 03:22:34;;;;;;;14.02;9.00;;;18.40;99.90;;;;;;5052146;28;20021;-75
2021/09/10 03:25:01;;;;;;;13.07;8.35;;;18.40;99.90;;;;;;5052552;28;20108;-75
2021/09/10 03:27:28;;;;;;;9.68;8.63;;;18.40;99.90;;;;;;5052346;28;20063;-74
2021/09/10 03:29:54;;;;;;;16.98;9.25;;;18.40;99.90;;;;;;5052212;28;20025;-74
2021/09/10 03:32:19;;;;;;;9.80;7.97;;;18.30;99.90;;;;;;5058656;28;20021;-75
2021/09/10 03:34:45;;;;;;;9.90;7.75;;;18.30;99.90;;;;;;5072306;28;20021;-74
2021/09/10 03:37:12;;;;;;;11.73;10.30;;;18.30;99.90;;;;;;5072281;28;20461;-74
2021/09/10 03:39:38;;;;;;;8.98;8.02;;;18.30;99.90;;;;;;5072372;28;20020;-74
2021/09/10 03:42:04;;;;;;;9.52;8.15;;;18.40;99.90;;;;;;5072259;28;20171;-74
2021/09/10 03:44:30;;;;;;;10.00;7.57;;;18.50;99.90;;;;;;5072452;28;20506;-73
2021/09/10 03:46:56;;;;;;;7.93;7.15;;;18.60;99.90;;;;;;5071215;28;20046;-74
2021/09/10 03:49:21;;;;;;;8.32;7.53;;;18.60;99.90;;;;;;5072109;28;20021;-74
2021/09/10 03:51:47;;;;;;;10.02;7.82;;;18.50;99.90;;;;;;5071837;28;20115;-75
2021/09/10 03:54:12;;;;;;;8.95;8.07;;;18.30;99.90;;;;;;5071454;28;20074;-75
2021/09/10 03:56:38;;;;;;;8.95;8.05;;;18.40;99.90;;;;;;5072344;28;20070;-75
2021/09/10 03:59:03;;;;;;;10.02;8.80;;;18.50;99.90;;;;;;5072553;28;20116;-74
2021/09/10 04:01:29;;;;;;;12.98;8.38;;;18.50;99.90;;;;;;5072531;28;20035;-77
2021/09/10 04:03:54;;;;;;;9.98;8.98;;;18.50;99.90;;;;;;5072378;28;20029;-74
2021/09/10 04:06:20;;;;;;;10.48;8.90;;;18.40;99.90;;;;;;5071951;28;20028;-74
2021/09/10 04:08:45;;;;;;;15.82;9.25;;;18.30;99.90;;;;;;5073382;28;20431;-74
2021/09/10 04:11:11;;;;;;;17.23;8.68;;;18.50;99.90;;;;;;5071685;28;20438;-73
2021/09/10 04:13:40;;;;;;;15.15;9.52;;;18.50;99.90;;;;;;5074085;28;20025;-75
2021/09/10 04:16:06;;;;;;;11.25;8.48;;;18.40;99.90;;;;;;5059753;28;20520;-75
2021/09/10 04:18:34;;;;;;;11.10;8.75;;;18.30;99.90;;;;;;5052067;28;20049;-74
2021/09/10 04:20:59;;;;;;;9.07;8.18;;;18.10;99.90;;;;;;5053104;28;20021;-75
2021/09/10 04:23:25;;;;;;;10.48;9.07;;;18.00;99.90;;;;;;5054052;28;20396;-75
2021/09/10 04:26:00;;;;;;;13.73;9.18;;;18.00;99.90;;;;;;5052633;28;20025;-74
2021/09/10 04:28:25;;;;;;;9.50;8.60;;;18.00;99.90;;;;;;5051345;28;20025;-76
2021/09/10 04:30:51;;;;;;;9.43;8.43;;;18.00;99.90;;;;;;5056061;28;20027;-74
2021/09/10 04:33:16;;;;;;;10.88;9.75;;;17.90;99.90;;;;;;5062114;28;20027;-74
2021/09/10 04:35:42;;;;;;;9.63;8.75;;;17.80;99.90;;;;;;5072032;28;20094;-75
2021/09/10 04:38:07;;;;;;;10.88;9.38;;;17.80;99.90;;;;;;5072367;28;20064;-74
2021/09/10 04:40:33;;;;;;;14.73;9.43;;;17.80;99.90;;;;;;5070712;28;20127;-75
2021/09/10 04:42:58;;;;;;;9.90;8.80;;;18.00;99.90;;;;;;5072227;28;20024;-76
2021/09/10 04:45:26;;;;;;;11.05;9.23;;;17.90;99.90;;;;;;5072181;28;20027;-74
2021/09/10 04:47:52;;;;;;;11.40;8.95;;;17.80;99.90;;;;;;5072506;28;20071;-75
2021/09/10 04:50:18;;;;;;;11.43;8.80;;;17.70;99.90;;;;;;5073260;28;20016;-74
2021/09/10 04:52:43;;;;;;;12.25;8.98;;;17.70;99.90;;;;;;5071742;28;20037;-74
2021/09/10 04:55:09;;;;;;;9.70;8.65;;;17.80;99.90;;;;;;5072007;28;20021;-73
2021/09/10 04:57:36;;;;;;;9.45;8.50;;;17.80;99.90;;;;;;5070509;28;20048;-73
2021/09/10 05:00:02;;;;;;;11.68;8.63;;;17.70;99.90;;;;;;5070756;28;20028;-75
2021/09/10 05:02:28;;;;;;;12.60;8.77;;;17.80;99.90;;;;;;5070713;28;20074;-74
2021/09/10 05:04:53;;;;;;;10.40;8.80;;;17.90;99.90;;;;;;5071704;28;20446;-74
2021/09/10 05:07:19;;;;;;;13.07;9.63;;;17.90;99.90;;;;;;5072091;28;20035;-75
2021/09/10 05:09:45;;;;;;;10.18;8.90;;;18.10;99.90;;;;;;5072539;28;20093;-73
2021/09/10 05:12:10;;;;;;;13.93;8.68;;;18.20;99.90;;;;;;5074543;28;20111;-74
2021/09/10 05:14:36;;;;;;;17.08;9.25;;;18.40;99.90;;;;;;5074310;28;20039;-73
2021/09/10 05:17:02;;;;;;;11.77;9.13;;;18.60;99.90;;;;;;5055658;28;20095;-73
2021/09/10 05:19:27;;;;;;;12.88;8.88;;;18.70;99.90;;;;;;5053861;28;20021;-74
2021/09/10 05:21:53;;;;;;;13.35;8.55;;;19.00;99.90;;;;;;5054266;28;20033;-76
2021/09/10 05:24:18;;;;;;;11.38;8.38;;;19.20;99.90;;;;;;5053661;28;20111;-75
2021/09/10 05:26:44;;;;;;;12.80;7.80;;;19.50;99.90;;;;;;5054737;28;20388;-74
2021/09/10 05:29:09;;;;;;;18.65;8.80;;;19.60;99.90;;;;;;5055201;28;20028;-75
2021/09/10 05:31:35;;;;;;;11.07;8.32;;;19.80;99.90;;;;;;5059905;28;20440;-76
2021/09/10 05:34:01;;;;;;;10.25;8.25;;;19.90;99.90;;;;;;5069336;28;20099;-74
2021/09/10 05:36:26;;;;;;;13.35;9.27;;;20.10;99.90;;;;;;5075164;28;20033;-74
2021/09/10 05:38:52;;;;;;;11.35;9.00;;;20.20;99.90;;;;;;5073480;28;20111;-74
2021/09/10 05:41:17;;;;;;;10.25;8.00;;;20.20;99.90;;;;;;5074688;28;20029;-75
2021/09/10 05:43:43;;;;;;;8.68;7.75;;;20.40;99.90;;;;;;5074926;28;20077;-73
2021/09/10 05:46:09;;;;;;;8.77;7.97;;;20.50;99.90;;;;;;5073315;28;20073;-74
2021/09/10 05:48:35;;;;;;;10.98;8.13;;;20.50;99.90;;;;;;5074676;28;20028;-73
2021/09/10 05:51:01;;;;;;;9.70;8.25;;;20.60;99.90;;;;;;5074525;28;20058;-74
2021/09/10 05:53:28;;;;;;;11.02;8.57;;;20.50;99.90;;;;;;5074980;28;20091;-74
2021/09/10 05:55:54;;;;;;;9.15;7.65;;;20.40;99.90;;;;;;5074357;28;20466;-75
2021/09/10 05:58:19;;;;;;;16.63;8.48;;;20.10;99.90;;;;;;5077916;28;20029;-74
2021/09/10 06:00:45;;;;;;;8.68;7.50;;;19.90;99.90;;;;;;5086116;28;20036;-73
2021/09/10 06:03:10;;;;;;;16.95;8.52;;;19.60;99.90;;;;;;5087094;28;20016;-74
2021/09/10 06:05:36;;;;;;;9.18;8.32;;;19.40;99.90;;;;;;5093648;28;20008;-72
2021/09/10 06:08:02;;;;;;;10.25;8.25;;;19.20;99.90;;;;;;5098937;28;20022;-72
2021/09/10 06:10:28;;;;;;;10.90;9.10;;;19.30;99.90;;;;;;5098721;28;20085;-73
2021/09/10 06:12:54;;;;;;;8.75;7.93;;;19.30;99.90;;;;;;5098821;28;20032;-74
2021/09/10 06:15:19;;;;;;;10.13;7.95;;;19.30;99.90;;;;;;5091617;28;20021;-73
2021/09/10 06:17:45;;;;;;;8.82;8.02;;;19.40;99.90;;;;;;5078377;28;20043;-74
2021/09/10 06:20:11;;;;;;;13.02;8.52;;;19.60;99.90;;;;;;5073886;28;20085;-73
2021/09/10 06:22:37;;;;;;;10.05;8.23;;;19.60;99.90;;;;;;5078214;28;20507;-73
2021/09/10 06:25:04;;;;;;;10.93;7.95;;;19.50;99.90;;;;;;5074088;28;20041;-74
2021/09/10 06:27:30;;;;;;;10.02;8.40;;;19.60;99.90;;;;;;5073299;28;20041;-72
2021/09/10 06:29:56;;;;;;;9.98;7.78;;;19.70;99.90;;;;;;5071103;28;20035;-73
2021/09/10 06:32:24;;;;;;;11.85;8.25;;;19.70;99.90;;;;;;5069939;28;20021;-75
2021/09/10 06:34:49;;;;;;;11.38;8.77;;;20.00;99.90;;;;;;5073354;28;20028;-74
2021/09/10 06:37:15;;;;;;;9.23;8.40;;;20.10;99.90;;;;;;5076780;28;20020;-74
2021/09/10 06:39:40;;;;;;;9.48;8.43;;;20.20;99.90;;;;;;5082823;28;20025;-75
2021/09/10 06:42:06;;;;;;;9.15;8.20;;;20.20;99.90;;;;;;5093165;28;20037;-73
2021/09/10 06:44:32;;;;;;;9.45;8.60;;;20.20;99.90;;;;;;5094073;28;20055;-73
2021/09/10 06:46:57;;;;;;;8.63;7.85;;;20.30;99.90;;;;;;5096888;28;20037;-73
2021/09/10 06:49:23;;;;;;;9.85;8.85;;;20.10;99.90;;;;;;5094667;28;20044;-74
2021/09/10 06:51:48;;;;;;;14.52;8.82;;;20.00;99.90;;;;;;5091903;28;20028;-73
2021/09/10 06:54:14;;;;;;;9.32;8.48;;;20.10;99.90;;;;;;5090066;28;20029;-73
2021/09/10 06:56:39;;;;;;;10.63;9.43;;;20.40;99.90;;;;;;5085094;28;20039;-74
2021/09/10 06:59:05;;;;;;;8.82;7.93;;;20.70;99.90;;;;;;5080715;28;20098;-73
2021/09/10 07:01:31;;;;;;;9.35;8.45;;;20.70;99.90;;;;;;5081423;28;20066;-74
2021/09/10 07:03:57;;;;;;;10.63;8.75;;;20.80;99.90;;;;;;5088936;28;20022;-73
2021/09/10 07:06:23;;;;;;;9.38;8.48;;;20.90;99.90;;;;;;5092243;28;20056;-74
2021/09/10 07:08:48;;;;;;;14.70;9.18;;;20.80;99.90;;;;;;5092364;28;20043;-73
2021/09/10 07:11:14;;;;;;;12.50;9.45;;;21.00;99.90;;;;;;5091930;28;20039;-73
2021/09/10 07:13:40;;;;;;;10.23;8.05;;;21.10;99.90;;;;;;5091516;28;20025;-74
2021/09/10 07:16:06;;;;;;;11.20;8.60;;;21.10;99.90;;;;;;5078302;28;20029;-73
2021/09/10 07:18:32;;;;;;;11.73;9.15;;;21.10;99.90;;;;;;5057344;28;20036;-75
2021/09/10 07:20:59;;;;;;;10.55;8.32;;;21.20;99.90;;;;;;5056172;28;20024;-75
2021/09/10 07:23:25;;;;;;;11.85;8.48;;;21.20;99.90;;;;;;5055920;28;20043;-74
2021/09/10 07:25:50;;;;;;;8.93;7.63;;;21.10;99.90;;;;;;5057782;28;20051;-75
2021/09/10 07:28:16;;;;;;;10.43;9.35;;;21.10;99.90;;;;;;5053538;28;20025;-75
2021/09/10 07:30:41;;;;;;;9.75;8.75;;;21.30;99.90;;;;;;5061351;28;20449;-74
2021/09/10 07:33:07;;;;;;;9.73;8.82;;;21.30;99.90;;;;;;5069101;28;20016;-75
2021/09/10 07:35:33;;;;;;;10.90;8.95;;;21.40;99.90;;;;;;5073947;28;20117;-74
2021/09/10 07:37:59;;;;;;;12.70;9.88;;;21.50;99.90;;;;;;5061191;28;20607;-74
2021/09/10 07:40:24;;;;;;;11.80;10.35;;;21.50;99.90;;;;;;5053513;28;20021;-74
2021/09/10 07:42:50;;;;;;;13.27;9.00;;;21.50;99.90;;;;;;5052587;28;20021;-74
2021/09/10 07:45:15;;;;;;;12.82;8.82;;;21.60;99.90;;;;;;5058222;28;20087;-73
2021/09/10 07:47:41;;;;;;;10.25;8.52;;;21.60;99.90;;;;;;5064087;28;20013;-74
2021/09/10 07:50:07;;;;;;;14.30;9.00;;;21.90;99.90;;;;;;5073492;28;20430;-75
2021/09/10 07:52:33;;;;;;;9.93;8.85;;;22.10;99.90;;;;;;5055510;28;20024;-75
2021/09/10 07:54:59;;;;;;;9.98;8.18;;;22.30;99.90;;;;;;5052322;28;20121;-74
2021/09/10 07:57:24;;;;;;;8.82;7.93;;;22.20;99.90;;;;;;5053066;28;20040;-75
2021/09/10 07:59:55;;;;;;;9.52;7.95;;;22.30;99.90;;;;;;5053884;28;20044;-75
2021/09/10 08:02:21;;;;;;;10.38;7.70;;;22.40;99.90;;;;;;5062050;28;20430;-75
2021/09/10 08:04:47;;;;;;;8.50;7.57;;;22.60;99.90;;;;;;5060205;28;20033;-75
2021/09/10 08:07:12;;;;;;;10.77;7.47;;;22.70;99.90;;;;;;5052781;28;20383;-75
2021/09/10 08:09:38;;;;;;;9.18;7.28;;;22.90;99.90;;;;;;5052100;28;20070;-76
2021/09/10 08:12:04;;;;;;;11.77;7.65;;;23.00;99.90;;;;;;5052346;28;20095;-75
2021/09/10 08:14:29;;;;;;;8.88;8.05;;;23.20;99.90;;;;;;5052244;28;20288;-74
2021/09/10 08:16:55;;;;;;;9.00;7.22;;;23.40;99.90;;;;;;5052177;28;20481;-75
2021/09/10 08:19:20;;;;;;;11.73;7.57;;;23.30;99.90;;;;;;5052580;28;20452;-76
2021/09/10 08:21:46;;;;;;;8.50;7.30;;;23.40;99.90;;;;;;5052651;28;20029;-75
2021/09/10 08:24:11;;;;;;;11.25;7.18;;;23.70;99.90;;;;;;5053311;28;20052;-76
2021/09/10 08:26:37;;;;;;;9.15;7.50;;;23.90;99.90;;;;;;5052848;28;20025;-76
2021/09/10 08:29:03;;;;;;;7.10;6.28;;;23.70;99.90;;;;;;5051872;28;20023;-75
2021/09/10 08:31:29;;;;;;;5.78;4.93;;;23.80;99.90;;;;;;5055111;28;20032;-75
2021/09/10 08:33:54;;;;;;;7.53;5.18;;;23.70;99.90;;;;;;5051748;28;20104;-75
2021/09/10 08:36:22;;;;;;;5.40;3.60;;;24.10;99.90;;;;;;5051781;28;20408;-75
2021/09/10 08:38:48;;;;;;;4.75;4.18;;;24.20;99.90;;;;;;5051906;28;20028;-74
2021/09/10 08:41:18;;;;;;;6.07;4.18;;;24.40;99.90;;;;;;5050498;28;20551;-75
2021/09/10 08:43:48;;;;;;;3.67;3.33;;;24.40;99.90;;;;;;5052097;28;20037;-75
2021/09/10 08:46:14;;;;;;;3.78;3.45;;;24.20;99.90;;;;;;5053383;28;20021;-76
2021/09/10 08:48:42;;;;;;;4.80;4.07;;;23.90;99.90;;;;;;5055239;28;20453;-75
2021/09/10 08:51:08;;;;;;;4.32;4.03;;;23.80;99.90;;;;;;5054907;28;20100;-75
2021/09/10 08:53:33;;;;;;;4.70;4.30;;;23.80;99.90;;;;;;5060068;28;20460;-76
2021/09/10 08:55:59;;;;;;;5.80;4.15;;;23.70;99.90;;;;;;5063468;28;20099;-75
2021/09/10 08:58:25;;;;;;;4.57;4.28;;;23.70;99.90;;;;;;5062938;28;20029;-75
2021/09/10 09:00:51;;;;;;;5.85;4.07;;;23.50;99.90;;;;;;5074646;28;20025;-75
2021/09/10 09:03:16;;;;;;;4.85;3.95;;;23.40;99.90;;;;;;5053528;28;20109;-75
2021/09/10 09:05:42;;;;;;;5.05;4.65;;;23.50;99.90;;;;;;5066332;28;20035;-75
2021/09/10 09:08:18;;;;;;;7.25;4.25;;;23.80;99.90;;;;;;5072575;28;20016;-75
2021/09/10 09:11:02;;;;;;;4.72;4.32;;;24.00;99.90;;;;;;5066415;28;20100;-74
2021/09/10 09:13:33;;;;;;;5.03;4.63;;;24.20;99.90;;;;;;5063013;28;20039;-75
2021/09/10 09:16:23;;;;;;;5.15;4.47;;;24.20;99.90;;;;;;5055291;28;20033;-74
2021/09/10 09:19:01;;;;;;;5.07;4.63;;;24.20;99.90;;;;;;5065013;28;20045;-74
2021/09/10 09:21:34;;;;;;;6.88;4.50;;;24.40;99.90;;;;;;5062184;28;20484;-75
2021/09/10 09:24:20;;;;;;;4.75;4.35;;;24.40;99.90;;;;;;5064498;28;20021;-74
2021/09/10 09:26:49;;;;;;;6.82;5.38;;;24.40;99.90;;;;;;5065257;28;20078;-74
2021/09/10 09:29:18;;;;;;;5.03;4.07;;;24.40;99.90;;;;;;5061334;28;20017;-74
2021/09/10 09:31:54;;;;;;;5.40;4.95;;;24.70;99.90;;;;;;5054868;28;20048;-75
2021/09/10 09:34:43;;;;;;;8.35;5.55;;;24.70;99.90;;;;;;5055185;28;20021;-75
2021/09/10 09:37:09;;;;;;;5.43;4.82;;;24.50;99.90;;;;;;5055303;28;20053;-75
2021/09/10 09:39:59;;;;;;;5.35;4.85;;;24.50;99.90;;;;;;5053983;28;20052;-75
2021/09/10 09:42:34;;;;;;;6.15;4.80;;;24.40;99.90;;;;;;5054986;28;20028;-75
2021/09/10 09:45:13;;;;;;;6.00;4.75;;;24.60;99.90;;;;;;5064087;28;20039;-74
2021/09/10 09:47:40;;;;;;;10.48;5.03;;;24.80;99.90;;;;;;5079600;28;20031;-76
2021/09/10 09:50:11;;;;;;;6.28;5.10;;;24.80;99.90;;;;;;5064720;28;20032;-75
2021/09/10 09:52:37;;;;;;;5.53;4.90;;;25.00;99.90;;;;;;5057041;28;20419;-74
2021/09/10 09:55:08;;;;;;;5.55;4.55;;;24.90;99.90;;;;;;5054874;28;20032;-76
2021/09/10 09:57:34;;;;;;;7.45;5.50;;;24.80;99.90;;;;;;5054610;28;20040;-74
2021/09/10 10:00:03;;;;;;;5.75;5.25;;;24.80;99.90;;;;;;5052939;28;20519;-75
2021/09/10 10:02:29;;;;;;;5.78;5.28;;;24.70;99.90;;;;;;5063312;28;20555;-76
2021/09/10 10:04:59;;;;;;;7.30;5.50;;;24.50;99.90;;;;;;5057478;28;20063;-77
2021/09/10 10:07:29;;;;;;;7.60;5.23;;;24.60;99.90;;;;;;5067785;28;20070;-73
2021/09/10 10:09:56;;;;;;;8.43;4.88;;;24.80;99.90;;;;;;5056324;28;20017;-73
2021/09/10 10:12:25;;;;;;;5.22;4.63;;;24.70;99.90;;;;;;5071382;28;20029;-78
2021/09/10 10:14:50;;;;;;;7.47;5.00;;;24.60;99.90;;;;;;5055057;28;20119;-77
2021/09/10 10:17:31;;;;;;;5.60;5.10;;;24.90;99.90;;;;;;5062154;28;20047;-78
2021/09/10 10:19:57;;;;;;;5.00;4.50;;;24.90;99.90;;;;;;5076463;28;20043;-78
2021/09/10 10:22:37;;;;;;;4.90;4.40;;;24.70;99.90;;;;;;5058869;28;20037;-77
2021/09/10 10:25:05;;;;;;;5.47;4.97;;;25.00;99.90;;;;;;5044574;28;20016;-77
2021/09/10 10:27:38;;;;;;;6.15;5.63;;;25.20;99.90;;;;;;5067652;28;20548;-79
2021/09/10 10:30:36;;;;;;;5.70;5.20;;;25.30;99.90;;;;;;5059646;28;20442;-80
2021/09/10 10:33:26;;;;;;;5.32;4.60;;;25.40;99.90;;;;;;5040170;28;20032;-77
2021/09/10 10:35:51;;;;;;;4.60;4.20;;;25.40;99.40;;;;;;5077937;28;20028;-78
2021/09/10 10:38:17;;;;;;;5.72;4.30;;;25.10;99.90;;;;;;5074707;28;20029;-77
2021/09/10 10:40:47;;;;;;;5.47;4.32;;;25.40;99.90;;;;;;5072162;28;20111;-77
2021/09/10 10:43:22;;;;;;;9.93;4.90;;;25.50;99.70;;;;;;5076340;28;20028;-79
2021/09/10 10:45:47;;;;;;;5.13;4.60;;;25.30;99.90;;;;;;5076341;28;20068;-78
2021/09/10 10:48:34;;;;;;;4.82;4.43;;;25.40;99.90;;;;;;5068499;28;20025;-78
2021/09/10 10:51:01;;;;;;;4.95;4.55;;;25.40;99.80;;;;;;5045041;28;20025;-78
2021/09/10 10:53:27;;;;;;;5.60;5.10;;;25.30;99.90;;;;;;5056170;28;20028;-78
2021/09/10 10:55:53;;;;;;;6.53;4.57;;;25.40;99.70;;;;;;5060131;28;20025;-78
2021/09/10 10:58:25;;;;;;;5.20;4.70;;;25.00;99.90;;;;;;5060602;28;20112;-79
2021/09/10 11:01:00;;;;;;;8.23;4.80;;;25.10;99.90;;;;;;5056916;28;20029;-77
2021/09/10 11:03:26;;;;;;;4.45;4.05;;;25.20;99.50;;;;;;5059509;28;20021;-79
2021/09/10 11:05:53;;;;;;;4.82;4.05;;;25.60;99.30;;;;;;5058630;28;20025;-80
2021/09/10 11:08:32;;;;;;;6.63;4.68;;;25.80;98.70;;;;;;5048968;28;20020;-79
2021/09/10 11:10:58;;;;;;;6.68;4.43;;;26.10;98.50;;;;;;5042127;28;20025;-78
2021/09/10 11:13:24;;;;;;;6.63;4.15;;;25.90;98.20;;;;;;5036729;28;20044;-78
2021/09/10 11:15:49;;;;;;;5.05;4.15;;;26.00;98.50;;;;;;5057541;28;20035;-78
2021/09/10 11:18:15;;;;;;;5.00;4.13;;;26.20;98.80;;;;;;5072924;28;20419;-75
2021/09/10 11:20:48;;;;;;;7.88;4.43;;;26.40;98.00;;;;;;5060471;28;20032;-75
2021/09/10 11:23:25;;;;;;;5.00;4.60;;;26.40;98.00;;;;;;5058228;28;20036;-75
2021/09/10 11:25:53;;;;;;;5.45;4.47;;;25.90;97.80;;;;;;5056921;28;20027;-78
2021/09/10 11:28:20;;;;;;;4.13;3.83;;;25.80;98.50;;;;;;5055255;28;20036;-76
2021/09/10 11:30:48;;;;;;;4.25;3.85;;;26.30;97.60;;;;;;5055616;28;20017;-79
2021/09/10 11:33:14;;;;;;;4.10;3.70;;;26.40;97.20;;;;;;5051517;28;20536;-78
2021/09/10 11:35:40;;;;;;;4.10;3.70;;;26.20;97.10;;;;;;5052986;28;20039;-76
2021/09/10 11:38:17;;;;;;;5.40;3.80;;;26.30;97.00;;;;;;5051963;28;20029;-77
2021/09/10 11:40:50;;;;;;;5.00;4.60;;;26.10;97.30;;;;;;5053299;28;20021;-77
2021/09/10 11:43:26;;;;;;;4.93;4.53;;;26.30;97.60;;;;;;5062727;28;20017;-77
2021/09/10 11:45:57;;;;;;;4.50;4.20;;;26.20;97.70;;;;;;5075338;28;20541;-76
2021/09/10 11:48:26;;;;;;;5.18;4.25;;;26.30;97.80;;;;;;5073268;28;20047;-77
2021/09/10 11:51:00;;;;;;;4.63;4.28;;;26.60;97.30;;;;;;5074485;28;20400;-79
2021/09/10 11:53:45;;;;;;;4.90;4.40;;;26.20;97.50;;;;;;5075576;28;20120;-77
2021/09/10 11:56:12;;;;;;;4.55;4.10;;;25.80;97.70;;;;;;5075047;28;20086;-77
2021/09/10 11:58:45;;;;;;;5.78;4.47;;;25.90;97.90;;;;;;5073942;28;20055;-77
2021/09/10 12:01:19;;;;;;;5.40;4.95;;;26.00;97.70;;;;;;5073619;28;20028;-79
2021/09/10 12:03:52;;;;;;;5.05;4.28;;;26.20;97.60;;;;;;5073909;28;20024;-77
2021/09/10 12:06:28;;;;;;;4.78;4.13;;;26.30;98.00;;;;;;5074791;28;20039;-78
2021/09/10 12:09:09;;;;;;;5.68;5.05;;;26.30;97.70;;;;;;5073676;28;20280;-77
2021/09/10 12:11:36;;;;;;;5.38;4.28;;;26.50;97.20;;;;;;5075947;28;20021;-78
2021/09/10 12:14:12;;;;;;;6.45;4.65;;;26.30;97.30;;;;;;5075626;28;20484;-78
2021/09/10 12:16:37;;;;;;;4.95;4.55;;;26.30;97.70;;;;;;5058914;28;20021;-77
2021/09/10 12:19:04;;;;;;;4.88;4.50;;;26.30;97.60;;;;;;5056997;28;20056;-77
2021/09/10 12:21:32;;;;;;;4.45;4.03;;;26.60;97.50;;;;;;5072821;28;20047;-77
2021/09/10 12:24:11;;;;;;;6.03;4.82;;;26.60;97.60;;;;;;5074594;28;20021;-77
2021/09/10 12:26:51;;;;;;;5.55;5.05;;;26.80;97.70;;;;;;5055003;28;20033;-77
2021/09/10 12:29:25;;;;;;;4.90;4.25;;;26.90;97.30;;;;;;5054164;28;20081;-77
2021/09/10 12:31:57;;;;;;;6.65;5.45;;;26.70;96.90;;;;;;5054647;28;20018;-77
2021/09/10 12:34:23;;;;;;;4.95;4.53;;;26.70;96.80;;;;;;5052225;28;20021;-78
2021/09/10 12:36:48;;;;;;;4.75;4.45;;;26.80;96.60;;;;;;5056189;28;20083;-77
2021/09/10 12:39:15;;;;;;;4.90;4.50;;;26.90;96.90;;;;;;5053023;28;20032;-78
2021/09/10 12:41:41;;;;;;;5.82;4.70;;;26.90;96.80;;;;;;5056197;28;20017;-78
2021/09/10 12:44:10;;;;;;;4.57;4.18;;;26.90;97.30;;;;;;5065520;28;20020;-78